createdAt,value
2018-08-23T00:01:37.553Z,19.22
2018-08-23T00:04:07.191Z,19.00
2018-08-23T00:06:39.424Z,18.98
2018-08-23T00:09:08.724Z,19.03
2018-08-23T00:11:45.033Z,18.86
2018-08-23T00:14:14.483Z,18.95
2018-08-23T00:16:45.985Z,19.18
2018-08-23T00:19:15.695Z,19.13
2018-08-23T00:21:49.667Z,19.03
2018-08-23T00:24:20.591Z,18.99
2018-08-23T00:26:56.464Z,19.05
2018-08-23T00:29:27.416Z,19.13
2018-08-23T00:32:06.756Z,19.18
2018-08-23T00:34:38.741Z,18.62
2018-08-23T00:37:08.467Z,18.33
2018-08-23T00:39:37.276Z,18.50
2018-08-23T00:42:10.713Z,18.80
2018-08-23T00:45:00.311Z,18.68
2018-08-23T00:47:30.716Z,18.71
2018-08-23T00:49:59.838Z,18.79
2018-08-23T00:52:43.387Z,18.72
2018-08-23T00:55:30.193Z,18.62
2018-08-23T00:57:59.476Z,18.79
2018-08-23T01:00:28.700Z,18.92
2018-08-23T01:03:03.604Z,18.66
2018-08-23T01:05:37.850Z,18.60
2018-08-23T01:08:07.837Z,18.67
2018-08-23T01:10:39.103Z,18.55
2018-08-23T01:13:07.931Z,18.62
2018-08-23T01:15:37.756Z,18.60
2018-08-23T01:18:15.838Z,18.57
2018-08-23T01:20:45.999Z,18.52
2018-08-23T01:23:14.779Z,18.38
2018-08-23T01:25:44.953Z,18.62
2018-08-23T01:28:13.951Z,18.58
2018-08-23T01:30:43.345Z,18.41
2018-08-23T01:33:13.999Z,18.38
2018-08-23T01:35:44.380Z,18.48
2018-08-23T01:38:13.820Z,18.63
2018-08-23T01:40:42.709Z,18.61
2018-08-23T01:43:11.885Z,18.62
2018-08-23T01:45:40.729Z,18.67
2018-08-23T01:48:10.508Z,18.69
2018-08-23T01:50:39.747Z,18.59
2018-08-23T01:53:08.521Z,18.76
2018-08-23T01:55:37.350Z,18.95
2018-08-23T01:58:06.569Z,18.55
2018-08-23T02:00:36.232Z,18.61
2018-08-23T02:03:05.272Z,18.83
2018-08-23T02:05:37.548Z,18.86
2018-08-23T02:08:06.959Z,18.87
2018-08-23T02:10:35.784Z,18.93
2018-08-23T02:13:09.787Z,19.17
2018-08-23T02:15:44.236Z,19.14
2018-08-23T02:18:13.162Z,19.01
2018-08-23T02:20:42.248Z,18.88
2018-08-23T02:23:11.033Z,19.11
2018-08-23T02:25:42.099Z,18.80
2018-08-23T02:28:12.244Z,18.61
2018-08-23T02:30:53.594Z,18.63
2018-08-23T02:33:22.496Z,18.60
2018-08-23T02:36:19.190Z,18.80
2018-08-23T02:38:53.656Z,19.12
2018-08-23T02:41:22.650Z,19.17
2018-08-23T02:43:51.707Z,19.23
2018-08-23T02:46:20.575Z,19.03
2018-08-23T02:48:49.819Z,19.05
2018-08-23T02:51:18.692Z,19.10
2018-08-23T02:53:48.472Z,19.11
2018-08-23T02:56:19.690Z,19.15
2018-08-23T02:59:00.634Z,19.11
2018-08-23T03:01:31.712Z,19.12
2018-08-23T03:04:12.968Z,18.97
2018-08-23T03:07:12.626Z,19.14
2018-08-23T03:09:43.456Z,19.16
2018-08-23T03:12:20.108Z,19.28
2018-08-23T03:14:48.934Z,19.18
2018-08-23T03:17:25.456Z,19.24
2018-08-23T03:20:00.312Z,19.24
2018-08-23T03:22:30.143Z,19.31
2018-08-23T03:25:02.618Z,19.19
2018-08-23T03:27:32.109Z,19.23
2018-08-23T03:30:01.932Z,19.18
2018-08-23T03:32:31.178Z,19.29
2018-08-23T03:35:00.577Z,18.43
2018-08-23T03:37:29.354Z,18.23
2018-08-23T03:39:58.199Z,18.76
2018-08-23T03:42:27.711Z,18.77
2018-08-23T03:44:57.440Z,18.89
2018-08-23T03:47:26.959Z,18.87
2018-08-23T03:49:56.332Z,18.87
2018-08-23T03:52:30.677Z,18.93
2018-08-23T03:55:00.928Z,18.95
2018-08-23T03:57:35.553Z,19.01
2018-08-23T04:00:04.911Z,18.79
2018-08-23T04:02:34.650Z,18.85
2018-08-23T04:05:11.432Z,18.33
2018-08-23T04:07:41.235Z,18.54
2018-08-23T04:10:10.163Z,18.62
2018-08-23T04:12:40.354Z,18.77
2018-08-23T04:15:27.890Z,18.28
2018-08-23T04:17:56.991Z,18.69
2018-08-23T04:20:25.990Z,18.64
2018-08-23T04:22:54.924Z,18.62
2018-08-23T04:25:23.767Z,18.53
2018-08-23T04:27:52.819Z,18.59
2018-08-23T04:30:21.585Z,18.64
2018-08-23T04:32:50.436Z,18.57
2018-08-23T04:35:27.913Z,18.62
2018-08-23T04:37:57.118Z,18.62
2018-08-23T04:40:25.928Z,18.56
2018-08-23T04:42:54.747Z,18.59
2018-08-23T04:45:23.800Z,18.49
2018-08-23T04:47:58.253Z,18.43
2018-08-23T04:50:27.111Z,18.48
2018-08-23T04:52:55.966Z,18.51
2018-08-23T04:55:25.504Z,18.43
2018-08-23T04:57:55.048Z,18.67
2018-08-23T05:00:23.847Z,18.53
2018-08-23T05:02:52.767Z,18.52
2018-08-23T05:05:21.527Z,18.65
2018-08-23T05:07:50.374Z,18.59
2018-08-23T05:10:19.202Z,18.59
2018-08-23T05:12:48.203Z,18.68
2018-08-23T05:15:17.032Z,18.44
2018-08-23T05:17:46.129Z,18.44
2018-08-23T05:20:14.943Z,18.34
2018-08-23T05:23:06.288Z,18.49
2018-08-23T05:25:35.146Z,18.75
2018-08-23T05:28:16.243Z,18.98
2018-08-23T05:30:45.930Z,18.87
2018-08-23T05:33:16.703Z,18.97
2018-08-23T05:35:45.805Z,18.96
2018-08-23T05:38:15.427Z,18.73
2018-08-23T05:40:52.043Z,18.98
2018-08-23T05:43:21.688Z,19.24
2018-08-23T05:45:54.944Z,19.41
2018-08-23T05:48:32.099Z,18.88
2018-08-23T05:51:06.759Z,18.96
2018-08-23T05:53:43.004Z,19.33
2018-08-23T05:56:12.015Z,19.40
2018-08-23T05:58:40.891Z,19.75
2018-08-23T06:01:09.731Z,19.78
2018-08-23T06:03:38.797Z,19.84
2018-08-23T06:06:08.051Z,19.50
2018-08-23T06:08:39.323Z,19.24
2018-08-23T06:11:10.258Z,19.22
2018-08-23T06:13:39.380Z,19.30
2018-08-23T06:16:08.204Z,19.76
2018-08-23T06:18:37.053Z,19.82
2018-08-23T06:21:06.005Z,19.90
2018-08-23T06:24:03.322Z,20.09
2018-08-23T06:26:45.204Z,20.32
2018-08-23T06:29:35.713Z,20.08
2018-08-23T06:32:07.000Z,20.66
2018-08-23T06:34:52.141Z,20.79
2018-08-23T06:37:22.304Z,20.72
2018-08-23T06:39:51.097Z,20.89
2018-08-23T06:42:20.828Z,20.90
2018-08-23T06:44:53.847Z,20.99
2018-08-23T06:47:24.225Z,21.37
2018-08-23T06:49:53.780Z,21.83
2018-08-23T06:52:34.480Z,22.09
2018-08-23T06:55:03.899Z,22.02
2018-08-23T06:57:44.550Z,21.22
2018-08-23T07:00:17.815Z,21.13
2018-08-23T07:02:47.881Z,21.55
2018-08-23T07:05:17.404Z,21.16
2018-08-23T07:07:47.314Z,20.77
2018-08-23T07:10:16.213Z,20.66
2018-08-23T07:12:45.044Z,20.47
2018-08-23T07:15:14.040Z,21.12
2018-08-23T07:17:43.397Z,21.50
2018-08-23T07:20:14.239Z,21.75
2018-08-23T07:22:43.078Z,21.62
2018-08-23T07:25:14.867Z,20.83
2018-08-23T07:27:43.751Z,21.40
2018-08-23T07:30:16.889Z,21.20
2018-08-23T07:32:47.034Z,21.53
2018-08-23T07:35:19.938Z,21.87
2018-08-23T07:37:50.115Z,21.65
2018-08-23T07:40:21.064Z,21.58
2018-08-23T07:42:51.118Z,21.59
2018-08-23T07:45:21.752Z,21.53
2018-08-23T07:47:51.972Z,21.61
2018-08-23T07:50:20.909Z,21.74
2018-08-23T07:52:51.048Z,21.93
2018-08-23T07:55:19.912Z,21.99
2018-08-23T07:57:48.785Z,22.04
2018-08-23T08:00:41.367Z,21.97
2018-08-23T08:03:11.244Z,22.07
2018-08-23T08:05:41.699Z,22.21
2018-08-23T08:08:11.300Z,22.14
2018-08-23T08:10:42.485Z,22.33
2018-08-23T08:13:11.351Z,22.31
2018-08-23T08:15:40.173Z,22.51
2018-08-23T08:18:16.384Z,22.37
2018-08-23T08:20:51.615Z,22.39
2018-08-23T08:23:20.645Z,22.26
2018-08-23T08:25:49.538Z,22.29
2018-08-23T08:28:18.705Z,22.46
2018-08-23T08:30:52.193Z,22.65
2018-08-23T08:33:22.055Z,22.87
2018-08-23T08:35:55.367Z,23.22
2018-08-23T08:38:24.199Z,23.59
2018-08-23T08:40:53.224Z,23.38
2018-08-23T08:43:22.360Z,23.50
2018-08-23T08:46:00.803Z,23.62
2018-08-23T08:48:30.854Z,23.59
2018-08-23T08:51:24.305Z,23.36
2018-08-23T08:53:54.300Z,22.93
2018-08-23T08:56:58.629Z,23.33
2018-08-23T08:59:32.456Z,23.22
2018-08-23T09:02:01.821Z,23.24
2018-08-23T09:04:34.696Z,23.43
2018-08-23T09:07:03.725Z,23.17
2018-08-23T09:09:34.450Z,23.37
2018-08-23T09:12:08.395Z,23.55
2018-08-23T09:14:38.378Z,23.07
2018-08-23T09:17:29.732Z,23.31
2018-08-23T09:20:05.131Z,23.86
2018-08-23T09:22:40.337Z,24.12
2018-08-23T09:25:16.225Z,24.61
2018-08-23T09:27:47.872Z,24.72
2018-08-23T09:30:22.262Z,24.89
2018-08-23T09:32:51.817Z,24.72
2018-08-23T09:35:23.168Z,24.44
2018-08-23T09:37:56.083Z,23.37
2018-08-23T09:40:26.440Z,23.74
2018-08-23T09:42:55.474Z,24.20
2018-08-23T09:45:24.865Z,24.25
2018-08-23T09:47:53.631Z,24.02
2018-08-23T09:50:22.452Z,24.15
2018-08-23T09:52:51.264Z,24.23
2018-08-23T09:55:23.441Z,24.38
2018-08-23T09:57:52.235Z,24.42
2018-08-23T10:00:29.523Z,24.08
2018-08-23T10:03:04.552Z,23.86
2018-08-23T10:05:39.183Z,24.33
2018-08-23T10:08:14.384Z,24.96
2018-08-23T10:10:50.648Z,25.14
2018-08-23T10:13:25.031Z,25.26
2018-08-23T10:15:59.715Z,25.35
2018-08-23T10:18:34.284Z,25.23
2018-08-23T10:21:04.039Z,25.27
2018-08-23T10:23:32.843Z,25.24
2018-08-23T10:26:07.556Z,25.73
2018-08-23T10:28:41.888Z,25.76
2018-08-23T10:31:11.073Z,25.84
2018-08-23T10:33:39.851Z,26.19
2018-08-23T10:36:08.687Z,26.31
2018-08-23T10:38:37.851Z,26.26
2018-08-23T10:41:06.676Z,26.39
2018-08-23T10:43:41.472Z,26.22
2018-08-23T10:46:10.315Z,26.30
2018-08-23T10:48:39.111Z,26.48
2018-08-23T10:51:08.265Z,26.11
2018-08-23T10:53:37.060Z,26.22
2018-08-23T10:56:05.873Z,25.84
2018-08-23T10:58:35.335Z,26.04
2018-08-23T11:01:04.701Z,26.16
2018-08-23T11:03:33.486Z,26.34
2018-08-23T11:06:02.576Z,26.47
2018-08-23T11:08:33.080Z,26.30
2018-08-23T11:11:07.785Z,26.30
2018-08-23T11:13:42.089Z,26.65
2018-08-23T11:16:16.731Z,26.28
2018-08-23T11:18:51.227Z,26.62
2018-08-23T11:21:20.272Z,26.23
2018-08-23T11:23:49.199Z,26.37
2018-08-23T11:26:21.528Z,26.30
2018-08-23T11:28:50.729Z,26.14
2018-08-23T11:31:25.482Z,26.33
2018-08-23T11:33:54.480Z,26.40
2018-08-23T11:36:23.348Z,26.50
2018-08-23T11:38:52.496Z,26.52
2018-08-23T11:41:21.361Z,26.87
2018-08-23T11:43:50.149Z,26.92
2018-08-23T11:46:20.553Z,26.45
2018-08-23T11:48:49.678Z,26.36
2018-08-23T11:51:19.298Z,26.76
2018-08-23T11:53:48.524Z,26.71
2018-08-23T11:56:17.608Z,26.69
2018-08-23T11:58:46.556Z,26.56
2018-08-23T12:01:16.656Z,26.78
2018-08-23T12:03:45.963Z,26.89
2018-08-23T12:06:16.181Z,26.96
2018-08-23T12:08:45.088Z,26.95
2018-08-23T12:11:13.986Z,26.93
2018-08-23T12:13:48.271Z,26.98
2018-08-23T12:16:17.200Z,26.98
2018-08-23T12:18:45.983Z,27.03
2018-08-23T12:21:15.077Z,26.70
2018-08-23T12:23:43.865Z,26.78
2018-08-23T12:26:12.769Z,26.89
2018-08-23T12:28:47.262Z,27.09
2018-08-23T12:31:16.114Z,26.77
2018-08-23T12:33:45.342Z,26.86
2018-08-23T12:36:18.955Z,27.05
2018-08-23T12:38:53.368Z,26.68
2018-08-23T12:41:27.779Z,26.85
2018-08-23T12:43:56.615Z,26.64
2018-08-23T12:46:25.427Z,26.50
2018-08-23T12:48:58.459Z,26.35
2018-08-23T12:51:27.284Z,26.75
2018-08-23T12:53:56.093Z,27.27
2018-08-23T12:56:25.308Z,26.82
2018-08-23T12:58:54.147Z,26.82
2018-08-23T13:01:22.970Z,27.20
2018-08-23T13:03:52.286Z,27.04
2018-08-23T13:06:21.128Z,27.25
2018-08-23T13:08:49.964Z,26.81
2018-08-23T13:11:19.089Z,26.34
2018-08-23T13:13:47.876Z,26.43
2018-08-23T13:16:16.703Z,26.55
2018-08-23T13:18:45.842Z,26.69
2018-08-23T13:21:14.607Z,26.82
2018-08-23T13:23:45.329Z,26.70
2018-08-23T13:26:14.388Z,26.74
2018-08-23T13:28:43.282Z,26.93
2018-08-23T13:31:12.092Z,26.95
2018-08-23T13:33:40.865Z,27.14
2018-08-23T13:36:09.724Z,27.06
2018-08-23T13:38:38.494Z,26.77
2018-08-23T13:41:07.408Z,26.84
2018-08-23T13:43:36.266Z,27.01
2018-08-23T13:46:05.076Z,26.46
2018-08-23T13:48:33.850Z,26.79
2018-08-23T13:51:02.693Z,26.59
2018-08-23T13:53:31.555Z,26.53
2018-08-23T13:56:00.377Z,26.27
2018-08-23T13:58:29.213Z,26.09
2018-08-23T14:00:58.092Z,26.24
2018-08-23T14:03:26.868Z,26.35
2018-08-23T14:05:56.182Z,26.84
2018-08-23T14:08:25.023Z,26.85
2018-08-23T14:10:53.855Z,26.67
2018-08-23T14:13:22.647Z,26.71
2018-08-23T14:15:57.291Z,26.44
2018-08-23T14:18:26.412Z,26.91
2018-08-23T14:20:55.220Z,27.04
2018-08-23T14:23:24.034Z,26.98
2018-08-23T14:25:52.939Z,27.06
2018-08-23T14:28:21.791Z,26.42
2018-08-23T14:30:50.642Z,26.10
2018-08-23T14:33:19.503Z,26.24
2018-08-23T14:35:48.289Z,26.15
2018-08-23T14:38:17.555Z,25.97
2018-08-23T14:40:46.375Z,25.99
2018-08-23T14:43:15.272Z,26.45
2018-08-23T14:45:44.062Z,26.50
2018-08-23T14:48:16.587Z,26.36
2018-08-23T14:50:49.876Z,26.35
2018-08-23T14:53:24.572Z,26.54
2018-08-23T14:55:58.787Z,26.36
2018-08-23T14:58:27.963Z,26.01
2018-08-23T15:00:56.981Z,26.01
2018-08-23T15:03:26.008Z,25.94
2018-08-23T15:05:54.816Z,25.94
2018-08-23T15:08:23.733Z,25.75
2018-08-23T15:10:52.509Z,25.83
2018-08-23T15:13:21.306Z,25.93
2018-08-23T15:15:51.284Z,26.12
2018-08-23T15:18:21.449Z,25.86
2018-08-23T15:20:50.705Z,26.10
2018-08-23T15:23:19.760Z,26.32
2018-08-23T15:25:48.591Z,26.17
2018-08-23T15:28:17.508Z,26.30
2018-08-23T15:30:46.344Z,25.83
2018-08-23T15:33:15.362Z,26.14
2018-08-23T15:35:44.215Z,26.26
2018-08-23T15:38:13.020Z,26.37
2018-08-23T15:40:41.907Z,26.29
2018-08-23T15:43:10.716Z,26.24
2018-08-23T15:45:39.554Z,26.01
2018-08-23T15:48:08.360Z,26.16
2018-08-23T15:50:37.235Z,26.22
2018-08-23T15:53:06.268Z,26.20
2018-08-23T15:55:35.294Z,26.11
2018-08-23T15:58:03.948Z,25.99
2018-08-23T16:00:38.128Z,26.09
2018-08-23T16:03:07.900Z,26.13
2018-08-23T16:05:37.475Z,26.17
2018-08-23T16:08:06.615Z,26.32
2018-08-23T16:10:35.462Z,25.86
2018-08-23T16:13:04.283Z,25.78
2018-08-23T16:15:33.343Z,25.89
2018-08-23T16:18:07.943Z,25.66
2018-08-23T16:20:42.744Z,25.98
2018-08-23T16:23:11.797Z,25.72
2018-08-23T16:25:44.234Z,25.69
2018-08-23T16:28:13.411Z,25.85
2018-08-23T16:30:43.516Z,25.92
2018-08-23T16:33:12.841Z,25.83
2018-08-23T16:35:42.578Z,25.81
2018-08-23T16:38:11.634Z,25.74
2018-08-23T16:40:40.621Z,25.66
2018-08-23T16:43:09.500Z,25.66
2018-08-23T16:45:38.476Z,25.49
2018-08-23T16:48:07.716Z,25.38
2018-08-23T16:50:36.751Z,25.30
2018-08-23T16:53:05.721Z,25.01
2018-08-23T16:55:34.558Z,24.97
2018-08-23T16:58:03.745Z,24.87
2018-08-23T17:00:32.924Z,24.33
2018-08-23T17:03:02.088Z,24.62
2018-08-23T17:05:31.150Z,24.41
2018-08-23T17:08:00.475Z,24.54
2018-08-23T17:10:29.498Z,24.55
2018-08-23T17:12:58.440Z,24.46
2018-08-23T17:15:32.029Z,24.40
2018-08-23T17:18:01.026Z,24.52
2018-08-23T17:20:29.895Z,24.64
2018-08-23T17:22:58.786Z,24.61
2018-08-23T17:25:27.641Z,24.72
2018-08-23T17:27:56.488Z,24.39
2018-08-23T17:30:25.553Z,24.43
2018-08-23T17:32:54.455Z,24.41
2018-08-23T17:35:23.646Z,24.51
2018-08-23T17:37:52.647Z,24.49
2018-08-23T17:40:21.805Z,24.43
2018-08-23T17:42:50.895Z,24.37
2018-08-23T17:45:20.752Z,24.33
2018-08-23T17:47:50.136Z,24.34
2018-08-23T17:50:19.055Z,24.21
2018-08-23T17:52:48.059Z,24.17
2018-08-23T17:55:17.045Z,24.25
2018-08-23T17:57:45.852Z,24.12
2018-08-23T18:00:14.718Z,23.90
2018-08-23T18:02:43.699Z,23.92
2018-08-23T18:05:12.582Z,23.88
2018-08-23T18:07:41.755Z,23.86
2018-08-23T18:10:10.760Z,23.87
2018-08-23T18:12:39.552Z,23.74
2018-08-23T18:15:09.488Z,23.52
2018-08-23T18:17:39.249Z,23.36
2018-08-23T18:20:08.416Z,23.39
2018-08-23T18:22:38.180Z,23.41
2018-08-23T18:25:07.120Z,23.40
2018-08-23T18:27:36.128Z,23.22
2018-08-23T18:30:05.789Z,23.24
2018-08-23T18:32:35.091Z,23.14
2018-08-23T18:35:04.543Z,23.10
2018-08-23T18:37:33.558Z,23.10
2018-08-23T18:40:02.649Z,22.92
2018-08-23T18:42:31.728Z,22.93
2018-08-23T18:45:06.668Z,22.76
2018-08-23T18:47:35.635Z,22.70
2018-08-23T18:50:05.384Z,22.62
2018-08-23T18:52:34.784Z,22.55
2018-08-23T18:55:03.691Z,22.55
2018-08-23T18:57:32.527Z,22.43
2018-08-23T19:00:01.463Z,22.41
2018-08-23T19:02:30.263Z,22.31
2018-08-23T19:04:59.500Z,22.21
2018-08-23T19:07:33.868Z,22.15
2018-08-23T19:10:02.768Z,22.24
2018-08-23T19:12:31.775Z,22.07
2018-08-23T19:15:00.554Z,22.05
2018-08-23T19:17:40.314Z,21.95
2018-08-23T19:20:10.800Z,21.82
2018-08-23T19:22:40.284Z,21.88
2018-08-23T19:25:10.072Z,21.84
2018-08-23T19:27:39.146Z,21.77
2018-08-23T19:30:09.160Z,21.73
2018-08-23T19:32:38.124Z,21.68
2018-08-23T19:35:07.110Z,21.66
2018-08-23T19:37:35.903Z,21.66
2018-08-23T19:40:04.823Z,21.63
2018-08-23T19:42:33.673Z,21.63
2018-08-23T19:45:08.602Z,21.55
2018-08-23T19:47:43.089Z,21.31
2018-08-23T19:50:12.698Z,21.40
2018-08-23T19:52:41.550Z,21.23
2018-08-23T19:55:10.697Z,21.23
2018-08-23T19:57:39.592Z,21.22
2018-08-23T20:00:09.617Z,21.29
2018-08-23T20:02:38.461Z,21.28
2018-08-23T20:05:07.379Z,21.21
2018-08-23T20:07:36.251Z,21.09
2018-08-23T20:10:05.417Z,21.00
2018-08-23T20:12:34.255Z,20.87
2018-08-23T20:15:03.088Z,20.85
2018-08-23T20:17:31.879Z,20.80
2018-08-23T20:20:00.750Z,20.98
2018-08-23T20:22:29.604Z,20.86
2018-08-23T20:24:58.435Z,20.90
2018-08-23T20:27:27.267Z,20.61
2018-08-23T20:29:56.449Z,20.55
2018-08-23T20:32:25.261Z,20.62
2018-08-23T20:34:54.121Z,20.72
2018-08-23T20:37:22.919Z,20.70
2018-08-23T20:39:51.794Z,20.60
2018-08-23T20:42:20.579Z,20.65
2018-08-23T20:44:49.355Z,20.69
2018-08-23T20:47:18.231Z,20.70
2018-08-23T20:49:47.017Z,20.79
2018-08-23T20:52:15.820Z,20.58
2018-08-23T20:54:45.241Z,20.56
2018-08-23T20:57:15.256Z,20.48
2018-08-23T20:59:44.120Z,20.53
2018-08-23T21:02:13.031Z,20.54
2018-08-23T21:04:41.897Z,20.41
2018-08-23T21:07:10.716Z,20.30
2018-08-23T21:09:39.528Z,20.37
2018-08-23T21:12:08.444Z,20.34
2018-08-23T21:14:37.217Z,20.32
2018-08-23T21:17:06.179Z,20.33
2018-08-23T21:19:34.968Z,20.28
2018-08-23T21:22:03.820Z,20.37
2018-08-23T21:24:32.687Z,20.20
2018-08-23T21:27:01.507Z,20.07
2018-08-23T21:29:30.316Z,20.18
2018-08-23T21:31:59.107Z,20.19
2018-08-23T21:34:28.204Z,19.99
2018-08-23T21:36:57.031Z,19.84
2018-08-23T21:39:25.849Z,19.94
2018-08-23T21:41:54.675Z,20.17
2018-08-23T21:44:23.488Z,19.98
2018-08-23T21:46:52.333Z,19.92
2018-08-23T21:49:21.193Z,19.76
2018-08-23T21:51:49.979Z,19.59
2018-08-23T21:54:18.787Z,19.92
2018-08-23T21:56:47.541Z,19.94
2018-08-23T21:59:16.392Z,19.79
2018-08-23T22:01:45.479Z,19.66
2018-08-23T22:04:14.285Z,19.84
2018-08-23T22:06:43.024Z,19.91
2018-08-23T22:09:15.403Z,19.92
2018-08-23T22:11:44.172Z,20.03
2018-08-23T22:14:13.095Z,19.94
2018-08-23T22:16:41.892Z,20.12
2018-08-23T22:19:10.786Z,20.15
2018-08-23T22:21:39.543Z,19.98
2018-08-23T22:24:08.652Z,20.04
2018-08-23T22:26:37.499Z,20.10
2018-08-23T22:29:06.725Z,19.97
2018-08-23T22:31:35.647Z,19.94
2018-08-23T22:34:04.416Z,20.12
2018-08-23T22:36:33.199Z,20.08
2018-08-23T22:39:02.582Z,20.17
2018-08-23T22:41:31.800Z,20.25
2018-08-23T22:44:00.575Z,20.13
2018-08-23T22:46:29.499Z,19.84
2018-08-23T22:48:58.250Z,20.08
2018-08-23T22:51:27.117Z,20.11
2018-08-23T22:53:56.491Z,20.19
2018-08-23T22:56:25.256Z,20.33
2018-08-23T22:58:54.036Z,20.24
2018-08-23T23:01:22.992Z,20.29
2018-08-23T23:03:57.325Z,20.33
2018-08-23T23:06:26.576Z,20.41
2018-08-23T23:08:55.331Z,20.13
2018-08-23T23:11:24.108Z,20.40
2018-08-23T23:13:53.504Z,20.42
2018-08-23T23:16:22.361Z,20.47
2018-08-23T23:18:51.080Z,20.50
2018-08-23T23:21:19.978Z,20.58
2018-08-23T23:23:48.752Z,20.56
2018-08-23T23:26:17.580Z,20.57
2018-08-23T23:28:46.834Z,20.65
2018-08-23T23:31:15.665Z,20.66
2018-08-23T23:33:44.720Z,20.62
2018-08-23T23:36:13.647Z,20.72
2018-08-23T23:38:42.500Z,20.60
2018-08-23T23:41:11.340Z,20.68
2018-08-23T23:43:40.300Z,20.59
2018-08-23T23:46:09.063Z,20.74
2018-08-23T23:48:37.860Z,20.72
2018-08-23T23:51:06.854Z,20.68
2018-08-23T23:53:35.619Z,20.71
2018-08-23T23:56:04.473Z,20.77
2018-08-23T23:58:33.524Z,20.60
